Time;durP1;ratioP1;P1;durP2;ratioP2;P2;SDS_P1;SDS_P2;PMS_P1;PMS_P2;Temp;Humidity;BMP_temperature;BMP_pressure;BME280_temperature;BME280_humidity;BME280_pressure;Samples;Min_cycle;Max_cycle;Signal;HPM_P1;HPM_P2
2021/03/10 00:01:08;;;;;;;15.87;2.80;;;25.30;95.10;;;;;;5071929;28;20494;-72
2021/03/10 00:03:36;;;;;;;9.83;2.40;;;25.60;94.60;;;;;;5071451;28;20176;-71
2021/03/10 00:06:05;;;;;;;10.57;2.73;;;25.70;94.40;;;;;;5070749;28;20443;-72
2021/03/10 00:08:33;;;;;;;6.70;2.33;;;25.50;94.30;;;;;;5068967;28;20596;-71
2021/03/10 00:11:00;;;;;;;12.17;3.57;;;25.20;94.70;;;;;;5071490;28;20244;-70
2021/03/10 00:13:28;;;;;;;13.63;3.40;;;25.10;95.00;;;;;;5072436;28;20720;-71
2021/03/10 00:15:55;;;;;;;16.77;3.57;;;25.20;95.10;;;;;;5070180;28;20191;-71
2021/03/10 00:18:22;;;;;;;12.13;2.90;;;25.20;94.60;;;;;;5033066;28;20180;-71
2021/03/10 00:20:50;;;;;;;8.73;2.60;;;25.50;94.70;;;;;;5057492;28;20263;-71
2021/03/10 00:23:17;;;;;;;19.73;3.23;;;25.70;94.50;;;;;;5051845;28;20183;-71
2021/03/10 00:25:44;;;;;;;12.93;2.20;;;25.80;94.20;;;;;;5051118;28;20273;-72
2021/03/10 00:28:12;;;;;;;13.27;3.00;;;25.40;94.20;;;;;;5049084;28;20224;-71
2021/03/10 00:30:39;;;;;;;13.40;2.50;;;25.30;94.50;;;;;;5049793;28;20598;-71
2021/03/10 00:33:07;;;;;;;15.70;2.37;;;25.30;94.60;;;;;;5051493;28;20180;-72
2021/03/10 00:35:34;;;;;;;10.03;2.53;;;24.90;94.80;;;;;;5049673;28;20199;-71
2021/03/10 00:38:02;;;;;;;12.27;2.57;;;24.90;95.00;;;;;;5049506;28;20649;-71
2021/03/10 00:40:30;;;;;;;10.10;2.23;;;24.80;95.30;;;;;;5048859;28;20630;-71
2021/03/10 00:42:57;;;;;;;17.43;2.90;;;25.00;94.90;;;;;;5048244;28;20249;-72
2021/03/10 00:45:25;;;;;;;9.97;2.90;;;25.10;94.90;;;;;;5064770;28;20249;-71
2021/03/10 00:48:00;;;;;;;11.77;2.93;;;25.10;94.70;;;;;;5070506;28;20711;-70
2021/03/10 00:50:28;;;;;;;12.80;3.23;;;25.20;94.60;;;;;;5066195;28;20739;-72
2021/03/10 00:52:57;;;;;;;13.20;2.37;;;25.40;94.40;;;;;;5053529;28;20196;-71
2021/03/10 00:55:25;;;;;;;8.93;2.20;;;25.50;94.40;;;;;;5072091;28;20197;-71
2021/03/10 00:57:52;;;;;;;8.93;2.33;;;25.50;94.10;;;;;;5071909;28;20622;-72
2021/03/10 01:00:21;;;;;;;10.33;2.37;;;25.70;94.00;;;;;;5071879;28;20594;-72
2021/03/10 01:02:49;;;;;;;7.60;2.10;;;25.40;94.10;;;;;;5071537;28;20202;-71
2021/03/10 01:05:17;;;;;;;10.63;2.47;;;25.40;94.20;;;;;;5071841;28;20163;-71
2021/03/10 01:07:44;;;;;;;7.70;2.03;;;25.40;94.10;;;;;;5071934;28;20541;-72
2021/03/10 01:10:13;;;;;;;11.60;3.03;;;25.60;93.90;;;;;;5070439;28;20222;-71
2021/03/10 01:12:40;;;;;;;10.87;2.87;;;25.80;93.40;;;;;;5062446;28;20578;-71
2021/03/10 01:15:12;;;;;;;14.03;2.73;;;25.80;93.50;;;;;;5071727;28;20269;-72
2021/03/10 01:17:39;;;;;;;9.83;3.03;;;25.70;93.40;;;;;;5071727;28;20678;-72
2021/03/10 01:20:13;;;;;;;9.47;3.00;;;25.80;93.70;;;;;;5058494;28;20176;-71
2021/03/10 01:22:41;;;;;;;15.80;2.87;;;26.00;93.60;;;;;;5051647;28;20192;-72
2021/03/10 01:25:10;;;;;;;10.23;2.57;;;25.80;93.40;;;;;;5057526;28;20664;-71
2021/03/10 01:27:37;;;;;;;11.23;2.67;;;25.60;93.80;;;;;;5071641;28;20221;-72
2021/03/10 01:30:11;;;;;;;12.53;2.60;;;25.60;93.70;;;;;;5071322;28;20673;-72
2021/03/10 01:32:39;;;;;;;15.27;2.40;;;25.50;93.60;;;;;;5074524;28;20265;-71
2021/03/10 01:35:07;;;;;;;14.57;2.70;;;25.60;93.60;;;;;;5074955;28;20190;-71
2021/03/10 01:37:35;;;;;;;7.30;2.40;;;25.60;93.60;;;;;;5075119;28;20187;-69
2021/03/10 01:40:10;;;;;;;11.70;2.70;;;25.70;93.50;;;;;;5074821;28;20532;-70
2021/03/10 01:42:37;;;;;;;11.90;2.37;;;25.80;93.40;;;;;;5075269;28;20178;-71
2021/03/10 01:45:07;;;;;;;9.90;2.50;;;25.60;93.50;;;;;;5075888;28;20548;-70
2021/03/10 01:47:35;;;;;;;11.20;3.03;;;25.50;93.80;;;;;;5075929;28;20267;-70
2021/03/10 01:50:04;;;;;;;14.70;2.70;;;25.60;94.00;;;;;;5064574;28;20576;-71
2021/03/10 01:52:32;;;;;;;10.00;2.80;;;25.60;93.80;;;;;;5060715;28;20179;-70
2021/03/10 01:55:00;;;;;;;11.83;2.80;;;25.70;93.80;;;;;;5057125;28;20558;-71
2021/03/10 01:57:28;;;;;;;10.67;2.50;;;26.00;93.70;;;;;;5054825;28;20594;-70
2021/03/10 01:59:57;;;;;;;7.30;2.47;;;26.30;93.00;;;;;;5055340;28;20588;-71
2021/03/10 02:02:24;;;;;;;9.77;2.80;;;26.40;93.00;;;;;;5075681;28;20179;-71
2021/03/10 02:04:52;;;;;;;9.07;2.50;;;26.80;92.50;;;;;;5075288;28;20172;-70
2021/03/10 02:07:49;;;;;;;11.40;3.17;;;26.70;92.90;;;;;;5075326;28;20187;-71
2021/03/10 02:11:07;;;;;;;13.80;2.67;;;26.60;93.00;;;;;;5040127;28;20208;-70
2021/03/10 02:14:00;;;;;;;16.90;3.10;;;26.00;93.70;;;;;;5043717;28;20565;-70
2021/03/10 02:16:37;;;;;;;21.03;3.30;;;25.90;94.20;;;;;;5056769;28;20182;-70
2021/03/10 02:19:26;;;;;;;11.23;3.00;;;25.70;94.30;;;;;;5075351;28;20206;-70
2021/03/10 02:22:05;;;;;;;13.80;3.00;;;25.40;94.70;;;;;;5074770;28;20171;-72
2021/03/10 02:25:09;;;;;;;15.97;2.77;;;25.60;94.60;;;;;;5061629;28;20176;-70
2021/03/10 02:27:42;;;;;;;18.13;3.07;;;26.20;94.10;;;;;;5036029;28;20219;-70
2021/03/10 02:30:23;;;;;;;15.13;3.30;;;26.80;93.50;;;;;;5056619;28;20700;-71
2021/03/10 02:33:05;;;;;;;10.13;2.50;;;26.50;93.10;;;;;;5055089;28;20586;-71
2021/03/10 02:35:33;;;;;;;12.23;3.03;;;26.30;93.20;;;;;;5050995;28;20179;-71
2021/03/10 02:38:05;;;;;;;10.10;2.53;;;26.10;93.70;;;;;;5054151;28;20180;-70
2021/03/10 02:40:34;;;;;;;13.67;3.20;;;26.00;94.10;;;;;;5068609;28;20268;-69
2021/03/10 02:43:02;;;;;;;17.23;3.20;;;26.30;94.40;;;;;;5053306;28;20180;-70
2021/03/10 02:45:29;;;;;;;12.23;2.90;;;26.60;93.50;;;;;;5055431;28;20172;-69
2021/03/10 02:47:59;;;;;;;11.10;2.70;;;27.00;93.10;;;;;;5054656;28;20183;-71
2021/03/10 02:50:27;;;;;;;9.90;2.73;;;27.60;92.20;;;;;;5053170;28;20227;-73
2021/03/10 02:52:56;;;;;;;8.57;2.67;;;28.20;91.60;;;;;;5055937;28;20669;-72
2021/03/10 02:55:24;;;;;;;9.50;2.53;;;28.30;91.10;;;;;;5061928;28;20213;-71
2021/03/10 02:57:52;;;;;;;13.80;3.10;;;28.50;91.30;;;;;;5052810;28;20259;-70
2021/03/10 03:00:22;;;;;;;8.97;1.83;;;28.70;90.80;;;;;;5055004;28;20192;-71
2021/03/10 03:02:50;;;;;;;10.77;2.50;;;28.20;91.10;;;;;;5073494;28;20469;-71
2021/03/10 03:05:18;;;;;;;16.23;2.83;;;28.30;91.10;;;;;;5069399;28;20188;-71
2021/03/10 03:07:48;;;;;;;16.63;3.00;;;28.30;90.90;;;;;;5059075;28;20292;-72
2021/03/10 03:10:28;;;;;;;10.13;2.53;;;28.30;90.90;;;;;;5059407;28;20222;-72
2021/03/10 03:12:56;;;;;;;8.83;2.13;;;28.60;90.50;;;;;;5072250;28;20167;-71
2021/03/10 03:15:24;;;;;;;10.03;2.43;;;28.20;90.70;;;;;;5068192;28;20225;-72
2021/03/10 03:17:53;;;;;;;10.73;2.70;;;27.50;91.30;;;;;;5054557;28;20176;-71
2021/03/10 03:20:22;;;;;;;12.90;2.60;;;27.30;91.50;;;;;;5056104;28;20183;-72
2021/03/10 03:22:54;;;;;;;9.20;2.57;;;27.60;91.50;;;;;;5052378;28;20183;-74
2021/03/10 03:25:38;;;;;;;10.10;2.63;;;28.10;91.10;;;;;;5057566;28;20214;-71
2021/03/10 03:28:10;;;;;;;11.73;2.70;;;28.30;90.40;;;;;;5057442;28;20211;-71
2021/03/10 03:30:39;;;;;;;12.27;3.10;;;28.30;90.70;;;;;;5053890;28;20183;-72
2021/03/10 03:33:13;;;;;;;8.30;2.17;;;28.30;90.60;;;;;;5063633;28;20179;-71
2021/03/10 03:35:42;;;;;;;14.47;2.67;;;28.60;90.50;;;;;;5053273;28;20183;-73
2021/03/10 03:38:11;;;;;;;7.57;2.90;;;29.20;89.20;;;;;;5071816;28;20187;-73
2021/03/10 03:40:39;;;;;;;11.10;2.40;;;28.80;89.60;;;;;;5072452;28;20194;-71
2021/03/10 03:43:10;;;;;;;11.37;2.00;;;28.50;90.30;;;;;;5073010;28;20195;-71
2021/03/10 03:45:38;;;;;;;12.30;3.53;;;29.00;88.70;;;;;;5072500;28;20276;-70
2021/03/10 03:48:06;;;;;;;10.77;2.40;;;28.70;89.50;;;;;;5072389;28;20171;-72
2021/03/10 03:50:34;;;;;;;8.40;2.53;;;29.20;89.10;;;;;;5053138;28;20192;-72
2021/03/10 03:53:02;;;;;;;10.80;2.77;;;29.50;88.60;;;;;;5058164;28;20198;-72
2021/03/10 03:55:29;;;;;;;11.87;2.67;;;29.20;87.60;;;;;;5071265;28;20334;-72
2021/03/10 03:57:57;;;;;;;10.37;2.37;;;28.90;88.70;;;;;;5071438;28;20500;-72
2021/03/10 04:00:26;;;;;;;10.60;2.60;;;28.20;89.60;;;;;;5071556;28;20178;-72
2021/03/10 04:02:53;;;;;;;15.17;2.60;;;27.90;90.40;;;;;;5069150;28;20175;-71
2021/03/10 04:05:22;;;;;;;11.30;2.50;;;28.00;90.10;;;;;;5070853;28;20587;-72
2021/03/10 04:07:59;;;;;;;14.30;2.60;;;28.40;89.90;;;;;;5054900;28;20203;-72
2021/03/10 04:10:37;;;;;;;11.83;2.67;;;28.70;88.90;;;;;;5064886;28;20691;-72
2021/03/10 04:13:06;;;;;;;6.90;2.20;;;29.50;87.50;;;;;;5072181;28;20167;-73
2021/03/10 04:15:37;;;;;;;12.77;3.10;;;29.50;86.60;;;;;;5071829;28;20183;-72
2021/03/10 04:18:05;;;;;;;9.80;2.70;;;29.50;86.70;;;;;;5052542;28;20270;-71
2021/03/10 04:20:32;;;;;;;8.43;2.53;;;29.70;86.10;;;;;;5051387;28;20238;-73
2021/03/10 04:23:00;;;;;;;9.03;2.50;;;29.40;86.80;;;;;;5046952;28;20188;-72
2021/03/10 04:25:27;;;;;;;12.75;2.50;;;29.60;86.00;;;;;;5056712;28;20200;-71
2021/03/10 04:27:54;;;;;;;8.45;2.28;;;30.00;85.40;;;;;;5064013;28;20222;-72
2021/03/10 04:30:22;;;;;;;14.17;2.73;;;29.80;85.70;;;;;;5068281;28;20262;-74
2021/03/10 04:32:50;;;;;;;13.47;2.20;;;28.60;87.30;;;;;;5055950;28;20513;-72
2021/03/10 04:35:19;;;;;;;9.17;2.30;;;28.10;89.70;;;;;;5055063;28;20237;-71
2021/03/10 04:37:46;;;;;;;9.23;2.77;;;27.60;90.10;;;;;;5060749;28;20179;-71
2021/03/10 04:40:14;;;;;;;8.07;2.53;;;27.00;90.70;;;;;;5052959;28;20275;-71
2021/03/10 04:42:42;;;;;;;10.33;2.17;;;27.10;90.90;;;;;;5069909;28;20543;-70
2021/03/10 04:45:12;;;;;;;9.10;2.30;;;27.00;91.10;;;;;;5034410;28;20282;-72
2021/03/10 04:47:41;;;;;;;11.20;2.70;;;27.20;90.60;;;;;;5053673;28;20179;-72
2021/03/10 04:50:09;;;;;;;12.77;2.90;;;27.40;90.50;;;;;;5036836;28;20219;-71
2021/03/10 04:52:37;;;;;;;8.70;2.53;;;28.20;89.60;;;;;;5042202;28;20614;-70
2021/03/10 04:55:06;;;;;;;14.43;2.50;;;29.10;87.50;;;;;;5054341;28;20660;-71
2021/03/10 04:57:34;;;;;;;9.57;2.50;;;28.80;87.90;;;;;;5058759;28;20184;-72
2021/03/10 05:00:03;;;;;;;9.27;2.17;;;29.00;86.80;;;;;;5058973;28;20476;-71
2021/03/10 05:02:30;;;;;;;11.77;3.07;;;29.10;86.60;;;;;;5055280;28;20709;-72
2021/03/10 05:04:58;;;;;;;13.65;2.58;;;29.90;85.40;;;;;;5057713;28;20176;-73
2021/03/10 05:07:25;;;;;;;7.22;2.25;;;29.60;84.80;;;;;;5057644;28;20180;-72
2021/03/10 05:09:52;;;;;;;10.45;2.70;;;29.60;84.30;;;;;;5048104;28;20196;-73
2021/03/10 05:12:20;;;;;;;9.13;2.20;;;29.40;85.10;;;;;;5056486;28;20248;-72
2021/03/10 05:14:47;;;;;;;7.40;2.30;;;29.10;85.90;;;;;;5055428;28;20299;-72
2021/03/10 05:17:15;;;;;;;12.70;2.67;;;29.70;84.70;;;;;;5059528;28;20508;-72
2021/03/10 05:19:42;;;;;;;14.93;2.60;;;29.90;83.90;;;;;;5052982;28;20626;-73
2021/03/10 05:22:10;;;;;;;12.60;2.57;;;29.10;85.50;;;;;;5057365;28;20187;-73
2021/03/10 05:24:37;;;;;;;8.47;2.10;;;28.70;86.10;;;;;;5054640;28;20175;-71
2021/03/10 05:27:05;;;;;;;10.70;2.73;;;28.20;87.50;;;;;;5061676;28;20179;-71
2021/03/10 05:29:32;;;;;;;10.67;2.43;;;27.90;88.30;;;;;;5052959;28;20341;-72
2021/03/10 05:31:59;;;;;;;9.57;2.40;;;27.80;88.40;;;;;;5053599;28;20258;-71
2021/03/10 05:34:26;;;;;;;16.00;2.57;;;27.50;89.30;;;;;;5054415;28;20617;-70
2021/03/10 05:36:55;;;;;;;11.90;2.67;;;27.20;90.00;;;;;;5051947;28;20242;-71
2021/03/10 05:39:22;;;;;;;9.80;2.27;;;27.80;89.40;;;;;;5054505;28;20188;-71
2021/03/10 05:41:50;;;;;;;7.30;2.27;;;28.10;88.00;;;;;;5054368;28;20179;-71
2021/03/10 05:44:17;;;;;;;12.40;2.27;;;28.20;87.50;;;;;;5053501;28;20276;-72
2021/03/10 05:46:44;;;;;;;8.63;2.00;;;28.00;87.80;;;;;;5054775;28;20248;-72
2021/03/10 05:49:12;;;;;;;9.00;2.40;;;28.00;87.30;;;;;;5053309;28;20210;-71
2021/03/10 05:51:39;;;;;;;11.70;2.30;;;27.30;89.40;;;;;;5053634;28;20262;-71
2021/03/10 05:54:07;;;;;;;8.13;2.40;;;26.80;90.50;;;;;;5053599;28;20250;-71
2021/03/10 05:56:34;;;;;;;12.50;2.77;;;26.60;90.90;;;;;;5054492;28;20250;-70
2021/03/10 05:59:06;;;;;;;6.23;2.17;;;26.40;91.10;;;;;;5054194;28;20180;-71
2021/03/10 06:01:34;;;;;;;8.50;2.40;;;26.30;91.30;;;;;;5054314;28;20184;-71
2021/03/10 06:04:03;;;;;;;11.80;3.40;;;26.10;91.70;;;;;;5054537;28;20643;-70
2021/03/10 06:06:40;;;;;;;19.70;7.13;;;26.00;91.90;;;;;;5052753;28;20172;-72
2021/03/10 06:09:27;;;;;;;11.93;2.83;;;27.00;91.00;;;;;;5054026;28;20219;-70
2021/03/10 06:11:55;;;;;;;11.60;2.27;;;26.70;91.00;;;;;;5051752;28;20206;-72
2021/03/10 06:14:23;;;;;;;11.20;3.07;;;26.60;91.30;;;;;;5054203;28;20176;-71
2021/03/10 06:17:08;;;;;;;13.57;3.30;;;26.30;91.50;;;;;;5053849;28;20175;-71
2021/03/10 06:19:50;;;;;;;10.87;2.47;;;26.10;92.00;;;;;;5052491;28;20183;-71
2021/03/10 06:22:18;;;;;;;14.33;2.60;;;26.00;92.20;;;;;;5052189;28;20180;-71
2021/03/10 06:24:50;;;;;;;11.83;2.50;;;25.70;92.40;;;;;;5053966;28;20203;-70
2021/03/10 06:27:24;;;;;;;10.13;2.60;;;25.60;92.60;;;;;;5051520;28;20223;-70
2021/03/10 06:29:59;;;;;;;12.53;3.17;;;25.30;92.90;;;;;;5052993;28;20671;-71
2021/03/10 06:32:27;;;;;;;8.70;2.77;;;25.40;93.10;;;;;;5043561;28;20661;-72
2021/03/10 06:34:55;;;;;;;14.23;3.03;;;25.20;93.30;;;;;;5048536;28;20923;-70
2021/03/10 06:37:40;;;;;;;9.13;2.60;;;25.10;93.60;;;;;;5052700;28;20180;-71
2021/03/10 06:40:12;;;;;;;12.80;4.50;;;25.00;93.80;;;;;;5052494;28;20190;-69
2021/03/10 06:42:40;;;;;;;17.47;4.83;;;24.90;93.80;;;;;;5053195;28;20191;-71
2021/03/10 06:45:09;;;;;;;11.90;3.93;;;24.90;93.90;;;;;;5053621;28;20180;-71
2021/03/10 06:47:41;;;;;;;16.63;3.30;;;25.00;93.70;;;;;;5053208;28;20176;-70
2021/03/10 06:50:15;;;;;;;14.73;3.20;;;24.80;93.70;;;;;;5049751;28;20362;-71
2021/03/10 06:53:00;;;;;;;14.23;3.03;;;24.60;94.10;;;;;;5051811;28;20258;-71
2021/03/10 06:55:37;;;;;;;7.17;2.70;;;24.50;94.30;;;;;;5050480;28;20172;-71
2021/03/10 06:58:06;;;;;;;12.73;3.17;;;24.50;94.50;;;;;;5049673;28;20194;-71
2021/03/10 07:00:34;;;;;;;11.37;2.90;;;24.60;94.40;;;;;;5051562;28;20180;-70
2021/03/10 07:03:02;;;;;;;10.80;2.60;;;24.60;94.40;;;;;;5051733;28;20262;-72
2021/03/10 07:05:30;;;;;;;12.53;4.33;;;24.70;94.30;;;;;;5052674;28;20180;-71
2021/03/10 07:07:59;;;;;;;12.03;3.60;;;24.80;94.30;;;;;;5053576;28;20200;-71
2021/03/10 07:10:28;;;;;;;18.27;9.40;;;24.80;94.30;;;;;;5042596;28;20356;-71
2021/03/10 07:12:57;;;;;;;21.63;7.33;;;24.70;94.10;;;;;;5048896;28;20176;-71
2021/03/10 07:15:25;;;;;;;10.33;4.43;;;24.60;94.20;;;;;;5052561;28;20227;-70
2021/03/10 07:17:52;;;;;;;16.97;3.97;;;24.50;94.40;;;;;;5059559;28;20243;-71
2021/03/10 07:20:21;;;;;;;8.00;2.77;;;24.40;94.50;;;;;;5067407;28;20179;-71
2021/03/10 07:23:05;;;;;;;11.50;2.77;;;24.40;94.60;;;;;;5061283;28;20320;-70
2021/03/10 07:25:35;;;;;;;11.47;2.73;;;24.30;94.70;;;;;;5049474;28;20172;-70
2021/03/10 07:28:19;;;;;;;11.43;2.80;;;24.10;95.00;;;;;;5051165;28;20241;-71
2021/03/10 07:30:49;;;;;;;9.47;3.53;;;24.20;95.20;;;;;;5054997;28;20505;-71
2021/03/10 07:33:22;;;;;;;8.27;2.70;;;24.20;95.40;;;;;;5055139;28;20187;-70
2021/03/10 07:36:01;;;;;;;12.13;2.87;;;24.20;95.40;;;;;;5067781;28;20183;-69
2021/03/10 07:38:41;;;;;;;11.60;3.10;;;24.10;95.30;;;;;;5067659;28;20266;-69
2021/03/10 07:41:10;;;;;;;15.00;3.00;;;24.20;95.30;;;;;;5063923;28;20203;-69
2021/03/10 07:43:45;;;;;;;9.40;2.80;;;24.00;95.40;;;;;;5060924;28;20187;-71
2021/03/10 07:46:28;;;;;;;14.03;6.03;;;23.90;95.70;;;;;;5061131;28;20548;-72
2021/03/10 07:48:57;;;;;;;13.57;5.80;;;23.80;95.90;;;;;;5060946;28;20215;-69
2021/03/10 07:51:27;;;;;;;15.80;4.20;;;23.80;96.10;;;;;;5052339;28;20263;-71
2021/03/10 07:53:55;;;;;;;12.50;3.50;;;23.80;96.20;;;;;;5055928;28;20203;-71
2021/03/10 07:56:31;;;;;;;18.80;4.27;;;23.70;96.10;;;;;;5073035;28;20633;-70
2021/03/10 07:59:16;;;;;;;12.37;4.10;;;23.80;96.00;;;;;;5059873;28;20223;-71
2021/03/10 08:01:43;;;;;;;10.97;5.63;;;23.70;96.20;;;;;;5053646;28;20249;-71
2021/03/10 08:04:18;;;;;;;11.60;3.40;;;23.60;96.50;;;;;;5062715;28;20205;-71
2021/03/10 08:06:55;;;;;;;15.50;3.10;;;23.60;96.70;;;;;;5067595;28;20253;-71
2021/03/10 08:09:27;;;;;;;12.83;3.37;;;23.60;96.80;;;;;;5050072;28;20198;-71
2021/03/10 08:12:11;;;;;;;13.13;6.40;;;23.50;96.90;;;;;;5072221;28;20191;-71
2021/03/10 08:14:49;;;;;;;18.47;3.40;;;23.40;97.10;;;;;;5057146;28;20183;-70
2021/03/10 08:17:30;;;;;;;14.07;3.20;;;23.40;97.10;;;;;;5063548;28;20214;-71
2021/03/10 08:19:59;;;;;;;14.80;3.23;;;23.30;97.20;;;;;;5052779;28;20622;-71
2021/03/10 08:22:28;;;;;;;17.40;3.60;;;23.40;97.20;;;;;;5064943;28;20192;-70
2021/03/10 08:24:57;;;;;;;11.27;3.60;;;23.40;97.20;;;;;;5057450;28;20261;-71
2021/03/10 08:27:39;;;;;;;10.57;3.13;;;23.40;97.30;;;;;;5071810;28;20227;-70
2021/03/10 08:30:14;;;;;;;13.20;3.20;;;23.40;97.30;;;;;;5072252;28;20206;-70
2021/03/10 08:32:42;;;;;;;11.47;2.90;;;23.40;97.00;;;;;;5060335;28;20529;-70
2021/03/10 08:35:14;;;;;;;11.90;3.00;;;23.40;96.90;;;;;;5052511;28;20274;-70
2021/03/10 08:37:56;;;;;;;12.30;3.40;;;23.40;97.00;;;;;;5050048;28;20176;-71
2021/03/10 08:40:26;;;;;;;15.27;3.70;;;23.40;97.10;;;;;;5068625;28;20172;-71
2021/03/10 08:42:55;;;;;;;7.63;2.80;;;23.50;97.10;;;;;;5057909;28;20583;-70
2021/03/10 08:45:33;;;;;;;16.23;3.40;;;23.50;97.10;;;;;;5049499;28;20266;-71
2021/03/10 08:48:06;;;;;;;9.63;2.97;;;23.50;97.20;;;;;;5072457;28;20186;-71
2021/03/10 08:50:45;;;;;;;10.80;3.07;;;23.40;97.10;;;;;;5057018;28;20214;-71
2021/03/10 08:53:14;;;;;;;8.07;3.30;;;23.40;97.10;;;;;;5054792;28;20172;-70
2021/03/10 08:55:43;;;;;;;11.40;3.00;;;23.40;97.20;;;;;;5057459;28;20179;-71
2021/03/10 08:58:11;;;;;;;9.87;2.90;;;23.40;97.20;;;;;;5068810;28;20641;-71
2021/03/10 09:00:40;;;;;;;14.17;4.00;;;23.40;97.20;;;;;;5071853;28;20179;-71
2021/03/10 09:03:18;;;;;;;11.13;3.10;;;23.40;97.20;;;;;;5066600;28;20179;-71
2021/03/10 09:05:47;;;;;;;11.67;3.20;;;23.30;97.20;;;;;;5068210;28;20661;-71
2021/03/10 09:08:17;;;;;;;14.20;3.33;;;23.30;97.40;;;;;;5054438;28;20696;-70
2021/03/10 09:10:53;;;;;;;14.80;3.17;;;23.40;97.50;;;;;;5052347;28;20187;-71
2021/03/10 09:13:21;;;;;;;11.17;3.87;;;23.40;97.60;;;;;;5050929;28;20175;-70
2021/03/10 09:15:50;;;;;;;10.77;3.27;;;23.40;97.50;;;;;;5046314;28;20176;-70
2021/03/10 09:18:17;;;;;;;13.60;3.27;;;23.50;97.50;;;;;;5050642;28;20211;-72
2021/03/10 09:20:46;;;;;;;15.57;3.63;;;23.40;97.40;;;;;;5051096;28;20188;-71
2021/03/10 09:23:26;;;;;;;13.40;3.47;;;23.40;97.40;;;;;;5050117;28;20180;-71
2021/03/10 09:25:56;;;;;;;16.77;3.30;;;23.40;97.40;;;;;;5046066;28;20266;-71
2021/03/10 09:28:23;;;;;;;8.43;3.20;;;23.40;97.20;;;;;;5050490;28;20231;-69
2021/03/10 09:30:52;;;;;;;14.93;3.93;;;23.30;97.30;;;;;;5051895;28;20188;-71
2021/03/10 09:33:22;;;;;;;14.27;5.33;;;23.30;97.50;;;;;;5051368;28;20279;-72
2021/03/10 09:35:54;;;;;;;10.57;3.77;;;23.40;97.70;;;;;;5051344;28;20180;-72
2021/03/10 09:38:22;;;;;;;11.20;3.20;;;23.40;97.70;;;;;;5051624;28;20594;-71
2021/03/10 09:41:01;;;;;;;10.80;2.90;;;23.40;97.90;;;;;;5051529;28;20259;-70
2021/03/10 09:43:31;;;;;;;11.10;3.47;;;23.40;98.20;;;;;;5051092;28;20654;-71
2021/03/10 09:46:03;;;;;;;11.47;2.83;;;23.40;98.40;;;;;;5051471;28;20639;-72
2021/03/10 09:48:33;;;;;;;14.43;3.70;;;23.30;98.50;;;;;;5049374;28;20213;-72
2021/03/10 09:51:12;;;;;;;11.70;2.90;;;23.30;98.50;;;;;;5050734;28;20187;-71
2021/03/10 09:53:45;;;;;;;11.00;3.30;;;23.30;98.70;;;;;;5052457;28;20176;-72
2021/03/10 09:56:17;;;;;;;12.93;3.83;;;23.20;98.50;;;;;;5055138;28;20271;-71
2021/03/10 09:58:47;;;;;;;8.00;2.43;;;23.20;98.50;;;;;;5051972;28;20282;-70
2021/03/10 10:01:15;;;;;;;13.60;3.60;;;23.20;98.50;;;;;;5054445;28;20188;-72
2021/03/10 10:03:42;;;;;;;11.27;3.20;;;23.20;98.60;;;;;;5052434;28;20202;-72
2021/03/10 10:06:12;;;;;;;10.20;3.33;;;23.20;98.40;;;;;;5054108;28;20191;-71
2021/03/10 10:08:40;;;;;;;11.00;3.43;;;23.20;98.60;;;;;;5054341;28;20294;-71
2021/03/10 10:11:09;;;;;;;11.90;3.13;;;23.30;98.40;;;;;;5054697;28;20192;-71
2021/03/10 10:13:36;;;;;;;12.10;2.40;;;23.30;98.30;;;;;;5054256;28;20172;-71
2021/03/10 10:16:04;;;;;;;10.53;3.13;;;23.30;98.30;;;;;;5054760;28;20187;-72
2021/03/10 10:18:31;;;;;;;13.07;2.80;;;23.30;98.30;;;;;;5053785;28;20176;-71
2021/03/10 10:20:59;;;;;;;10.50;3.47;;;23.20;98.00;;;;;;5053669;28;20630;-71
2021/03/10 10:23:26;;;;;;;7.30;2.77;;;23.20;98.20;;;;;;5053179;28;20180;-71
2021/03/10 10:25:54;;;;;;;18.00;3.57;;;23.20;98.10;;;;;;5054156;28;20314;-72
2021/03/10 10:28:22;;;;;;;8.60;2.60;;;23.20;98.10;;;;;;5053488;28;20678;-71
2021/03/10 10:30:51;;;;;;;7.67;2.73;;;23.20;98.20;;;;;;5054333;28;20256;-71
2021/03/10 10:33:19;;;;;;;14.23;3.13;;;23.30;98.30;;;;;;5054152;28;20179;-71
2021/03/10 10:35:46;;;;;;;13.10;3.07;;;23.30;98.50;;;;;;5054079;28;20215;-71
2021/03/10 10:38:13;;;;;;;8.73;2.90;;;23.20;98.30;;;;;;5054563;28;20176;-72
2021/03/10 10:40:41;;;;;;;9.87;3.07;;;23.20;98.30;;;;;;5054126;28;20191;-71
2021/03/10 10:43:08;;;;;;;7.13;2.90;;;23.20;98.10;;;;;;5053316;28;20184;-71
2021/03/10 10:45:36;;;;;;;9.83;2.90;;;23.20;98.10;;;;;;5051133;28;20650;-71
2021/03/10 10:48:03;;;;;;;10.40;2.77;;;23.20;98.10;;;;;;5053046;28;20196;-72
2021/03/10 10:50:31;;;;;;;7.47;3.17;;;23.20;98.10;;;;;;5052087;28;20207;-71
2021/03/10 10:52:58;;;;;;;12.67;3.17;;;23.20;98.10;;;;;;5052804;28;20549;-71
2021/03/10 10:55:26;;;;;;;8.70;2.87;;;23.20;98.20;;;;;;5053293;28;20180;-72
2021/03/10 10:57:53;;;;;;;10.57;2.77;;;23.20;98.30;;;;;;5051401;28;20245;-71
2021/03/10 11:00:25;;;;;;;8.23;3.40;;;23.20;98.40;;;;;;5050354;28;20597;-71
2021/03/10 11:02:52;;;;;;;10.53;2.83;;;23.20;98.60;;;;;;5059895;28;20183;-70
2021/03/10 11:05:20;;;;;;;10.10;2.53;;;23.20;98.50;;;;;;5065401;28;20262;-72
2021/03/10 11:07:47;;;;;;;7.10;2.40;;;23.20;98.40;;;;;;5054259;28;20180;-69
2021/03/10 11:10:15;;;;;;;8.30;2.70;;;23.20;98.30;;;;;;5052916;28;20473;-71
2021/03/10 11:12:42;;;;;;;7.33;2.73;;;23.20;98.30;;;;;;5062464;28;20182;-70
2021/03/10 11:15:10;;;;;;;7.67;2.60;;;23.10;98.50;;;;;;5074714;28;20182;-69
2021/03/10 11:17:38;;;;;;;8.47;2.43;;;23.10;98.50;;;;;;5060222;28;20271;-71
2021/03/10 11:20:08;;;;;;;8.30;2.50;;;23.10;98.70;;;;;;5064597;28;20679;-71
2021/03/10 11:22:36;;;;;;;10.47;2.93;;;23.10;98.50;;;;;;5062274;28;20274;-71
2021/03/10 11:25:10;;;;;;;15.17;2.73;;;23.00;98.30;;;;;;5057040;28;20195;-69
2021/03/10 11:27:38;;;;;;;13.57;3.10;;;23.00;98.50;;;;;;5049192;28;20212;-71
2021/03/10 11:30:08;;;;;;;6.60;2.80;;;23.00;98.60;;;;;;5054273;28;20249;-71
2021/03/10 11:32:35;;;;;;;8.70;2.53;;;23.00;98.70;;;;;;5054424;28;20205;-71
2021/03/10 11:35:05;;;;;;;15.63;2.73;;;23.00;98.70;;;;;;5053315;28;20180;-69
2021/03/10 11:37:32;;;;;;;12.53;2.50;;;22.90;98.70;;;;;;5052966;28;20184;-70
2021/03/10 11:40:00;;;;;;;7.73;2.97;;;22.90;98.70;;;;;;5054219;28;20184;-71
2021/03/10 11:42:27;;;;;;;13.03;3.13;;;23.00;98.80;;;;;;5053343;28;20564;-71
2021/03/10 11:44:54;;;;;;;7.13;2.47;;;22.90;98.70;;;;;;5052498;28;20175;-70
2021/03/10 11:47:22;;;;;;;9.73;2.67;;;22.90;98.70;;;;;;5053731;28;20292;-71
2021/03/10 11:49:49;;;;;;;10.03;2.53;;;22.90;98.80;;;;;;5053023;28;20208;-69
2021/03/10 11:52:17;;;;;;;13.17;2.90;;;22.80;98.90;;;;;;5052726;28;20544;-70
2021/03/10 11:54:47;;;;;;;11.57;3.03;;;22.80;99.00;;;;;;5053341;28;20176;-70
2021/03/10 11:57:15;;;;;;;12.00;2.90;;;22.80;99.00;;;;;;5052918;28;20567;-68
2021/03/10 11:59:42;;;;;;;15.77;3.53;;;22.80;99.00;;;;;;5040933;28;20206;-71
2021/03/10 12:02:09;;;;;;;10.07;2.80;;;22.80;99.00;;;;;;5053235;28;20175;-70
2021/03/10 12:04:37;;;;;;;11.60;2.63;;;22.80;98.90;;;;;;5052465;28;20543;-67
2021/03/10 12:07:04;;;;;;;8.27;2.30;;;22.80;98.90;;;;;;5053531;28;20202;-68
2021/03/10 12:09:32;;;;;;;7.00;2.40;;;22.90;99.00;;;;;;5053048;28;20262;-70
2021/03/10 12:11:59;;;;;;;11.27;3.13;;;22.80;99.10;;;;;;5053189;28;20268;-70
2021/03/10 12:14:27;;;;;;;6.63;2.57;;;22.80;99.10;;;;;;5052888;28;20186;-70
2021/03/10 12:16:55;;;;;;;6.17;2.90;;;22.80;99.20;;;;;;5052001;28;20172;-70
2021/03/10 12:19:22;;;;;;;12.87;3.37;;;22.80;99.30;;;;;;5051721;28;20183;-69
2021/03/10 12:21:50;;;;;;;6.80;2.10;;;22.80;99.40;;;;;;5052721;28;20176;-70
2021/03/10 12:24:17;;;;;;;8.47;2.33;;;22.80;99.60;;;;;;5052768;28;20575;-70
2021/03/10 12:26:45;;;;;;;11.77;3.00;;;22.80;99.70;;;;;;5052510;28;20184;-70
2021/03/10 12:29:12;;;;;;;11.70;2.67;;;22.80;99.80;;;;;;5054714;28;20234;-69
2021/03/10 12:31:40;;;;;;;11.57;2.63;;;22.90;99.80;;;;;;5055451;28;20184;-70
2021/03/10 12:34:08;;;;;;;17.13;2.60;;;22.80;99.80;;;;;;5048473;28;20192;-70
2021/03/10 12:36:35;;;;;;;7.67;2.10;;;22.90;99.80;;;;;;5041147;28;20639;-71
2021/03/10 12:39:05;;;;;;;8.57;2.17;;;22.90;99.70;;;;;;5031604;28;20525;-70
2021/03/10 12:41:32;;;;;;;13.53;2.70;;;22.90;99.70;;;;;;5032983;28;20216;-71
2021/03/10 12:44:00;;;;;;;9.10;2.57;;;22.90;99.60;;;;;;5042727;28;20522;-70
2021/03/10 12:46:31;;;;;;;6.13;2.17;;;22.80;99.70;;;;;;5058281;28;20180;-70
2021/03/10 12:48:58;;;;;;;11.70;2.50;;;22.90;99.60;;;;;;5066164;28;20219;-70
2021/03/10 12:51:26;;;;;;;12.10;2.50;;;22.90;99.60;;;;;;5052496;28;20172;-70
2021/03/10 12:53:54;;;;;;;11.93;2.47;;;22.80;99.50;;;;;;5051581;28;20226;-70
2021/03/10 12:56:21;;;;;;;5.13;1.93;;;22.80;99.50;;;;;;5063324;28;20594;-70